^^

..:: Storico WU ::..




Lo storico viene creato da WUnderground con i dati che la stazione Meteomincio invia al loro server. L' aggiornamento viene fatto ogni 5 minuti circa, tuttavia possono esserci intervalli pił ampi a causa di errori, interruzioni di servizio o problemi nell' invio tramite FTP.


Storico stazione MeteoMincio
Giorno Sommario per Ottobre 27, 2022 Unità:  Inglese    Metrico   Entrambi
Giorno Settimana Mese Anno
  Max: Min: Media:
Temperatura: 75.2 °F 55.4 °F 63 °F
Dew Point: 64.4 °F 53.6 °F 58.3 °F
Umidità: 95% 62% 86%
Velocità vento: 7.5mph 0mph 1.6mph
Raffica: 9.3mph - -
Direzione- - South
Pressione: 30.4 in 30.3 in -
Precipitazioni: 0.01 in    
 
 
Tabulato Dati per Ottobre 27, 2022
Ora Temperatura Dew Point Pressione Direzione Velocità vento Raffica Umidità Intensità pioggia (oraria) Info solare Situazione
00:04 60.8 °F 59 °F 30.3 in ENE 3.1 mph 5 mph 91% 0 in 0.00 W/m2 unknown
00:09 60.8 °F 59 °F 30.3 in ENE 3.1 mph 3.7 mph 91% 0 in 0.00 W/m2 unknown
00:14 60.8 °F 59 °F 30.3 in ENE 3.1 mph 3.7 mph 91% 0 in 0.00 W/m2 unknown
00:19 60.8 °F 59 °F 30.3 in ENE 2.5 mph 3.7 mph 91% 0 in 0.00 W/m2 unknown
00:24 60.8 °F 59 °F 30.3 in ENE 2.5 mph 3.7 mph 92% 0 in 0.00 W/m2 unknown
00:29 60.8 °F 59 °F 30.3 in ENE 2.5 mph 3.7 mph 92% 0 in 0.00 W/m2 unknown
00:34 60.8 °F 59 °F 30.3 in ENE 1.9 mph 3.1 mph 92% 0 in 0.00 W/m2 unknown
00:39 60.8 °F 59 °F 30.3 in East 3.1 mph 3.7 mph 92% 0 in 0.00 W/m2 unknown
00:44 60.8 °F 59 °F 30.3 in ENE 3.7 mph 5 mph 92% 0 in 0.00 W/m2 unknown
00:49 60.8 °F 59 °F 30.3 in East 2.5 mph 5 mph 92% 0 in 0.00 W/m2 unknown
00:54 60.8 °F 59 °F 30.3 in East 1.2 mph 3.1 mph 92% 0 in 0.00 W/m2 unknown
00:59 60.8 °F 59 °F 30.3 in East 0.6 mph 2.5 mph 92% 0 in 0.00 W/m2 unknown
01:04 60.8 °F 57.2 °F 30.3 in East 1.9 mph 2.5 mph 92% 0 in 0.00 W/m2 unknown
01:09 60.8 °F 57.2 °F 30.3 in ENE 2.5 mph 3.7 mph 92% 0 in 0.00 W/m2 unknown
01:14 60.8 °F 57.2 °F 30.3 in NE 3.1 mph 3.7 mph 93% 0 in 0.00 W/m2 unknown
01:19 60.8 °F 57.2 °F 30.3 in NE 2.5 mph 3.7 mph 93% 0 in 0.00 W/m2 unknown
01:24 59 °F 57.2 °F 30.3 in NE 1.2 mph 3.1 mph 93% 0 in 0.00 W/m2 unknown
01:29 59 °F 57.2 °F 30.3 in NE 2.5 mph 3.7 mph 93% 0 in 0.00 W/m2 unknown
01:34 59 °F 57.2 °F 30.3 in NE 2.5 mph 3.7 mph 93% 0 in 0.00 W/m2 unknown
01:39 59 °F 57.2 °F 30.3 in NE 3.1 mph 3.7 mph 93% 0 in 0.00 W/m2 unknown
01:44 59 °F 57.2 °F 30.3 in NE 2.5 mph 3.7 mph 93% 0 in 0.00 W/m2 unknown
01:49 59 °F 57.2 °F 30.3 in ENE 1.2 mph 3.1 mph 93% 0 in 0.00 W/m2 unknown
01:54 59 °F 57.2 °F 30.3 in NE 2.5 mph 3.7 mph 93% 0 in 0.00 W/m2 unknown
01:59 59 °F 57.2 °F 30.3 in NE 1.9 mph 3.7 mph 94% 0 in 0.00 W/m2 unknown
02:04 59 °F 57.2 °F 30.3 in NE 2.5 mph 3.7 mph 94% 0 in 0.00 W/m2 unknown
02:09 59 °F 57.2 °F 30.3 in NE 2.5 mph 3.7 mph 93% 0 in 0.00 W/m2 unknown
02:14 59 °F 57.2 °F 30.3 in NE 1.9 mph 3.7 mph 93% 0 in 0.00 W/m2 unknown
02:19 59 °F 57.2 °F 30.3 in NE 1.9 mph 3.7 mph 93% 0 in 0.00 W/m2 unknown
02:24 59 °F 57.2 °F 30.3 in NE 1.9 mph 3.1 mph 94% 0 in 0.00 W/m2 unknown
02:29 59 °F 57.2 °F 30.3 in NE 1.9 mph 2.5 mph 94% 0 in 0.00 W/m2 unknown
02:34 59 °F 57.2 °F 30.3 in NE 1.9 mph 2.5 mph 94% 0 in 0.00 W/m2 unknown
02:39 59 °F 57.2 °F 30.3 in NE 1.2 mph 2.5 mph 94% 0 in 0.00 W/m2 unknown
02:44 59 °F 57.2 °F 30.3 in NE 1.2 mph 2.5 mph 94% 0 in 0.00 W/m2 unknown
02:49 59 °F 57.2 °F 30.3 in NE 1.2 mph 1.9 mph 94% 0 in 0.00 W/m2 unknown
02:54 59 °F 57.2 °F 30.3 in Calm   1.2 mph 94% 0 in 0.00 W/m2 unknown
02:59 57.2 °F 55.4 °F 30.3 in Calm     94% 0 in 0.00 W/m2 unknown
03:04 57.2 °F 57.2 °F 30.3 in Calm     94% 0 in 0.00 W/m2 unknown
03:09 57.2 °F 57.2 °F 30.3 in NE 0.6 mph 1.9 mph 94% 0 in 0.00 W/m2 unknown
03:14 57.2 °F 55.4 °F 30.3 in NE 1.9 mph 3.7 mph 94% 0 in 0.00 W/m2 unknown
03:19 57.2 °F 55.4 °F 30.3 in NE 2.5 mph 3.7 mph 94% 0 in 0.00 W/m2 unknown
03:24 57.2 °F 55.4 °F 30.3 in NE 2.5 mph 3.7 mph 94% 0 in 0.00 W/m2 unknown
03:29 57.2 °F 55.4 °F 30.3 in NE 1.2 mph 2.5 mph 94% 0 in 0.00 W/m2 unknown
03:34 57.2 °F 55.4 °F 30.3 in NE 1.2 mph 2.5 mph 94% 0 in 0.00 W/m2 unknown
03:39 57.2 °F 55.4 °F 30.3 in NE 1.2 mph 2.5 mph 94% 0 in 0.00 W/m2 unknown
03:44 57.2 °F 55.4 °F 30.3 in NE 1.2 mph 2.5 mph 94% 0 in 0.00 W/m2 unknown
03:49 57.2 °F 55.4 °F 30.3 in NE 1.9 mph 3.7 mph 94% 0 in 0.00 W/m2 unknown
03:54 57.2 °F 55.4 °F 30.3 in NE 2.5 mph 3.7 mph 94% 0 in 0.00 W/m2 unknown
03:59 57.2 °F 55.4 °F 30.3 in NE 3.1 mph 3.7 mph 94% 0 in 0.00 W/m2 unknown
04:04 57.2 °F 55.4 °F 30.3 in NE 3.1 mph 3.7 mph 95% 0 in 0.00 W/m2 unknown
04:09 57.2 °F 55.4 °F 30.3 in NE 1.9 mph 3.7 mph 95% 0 in 0.00 W/m2 unknown
04:14 57.2 °F 55.4 °F 30.3 in NE 1.2 mph 2.5 mph 95% 0 in 0.00 W/m2 unknown
04:19 57.2 °F 55.4 °F 30.3 in Calm   1.2 mph 94% 0 in 0.00 W/m2 unknown
04:24 57.2 °F 55.4 °F 30.3 in Calm   1.2 mph 94% 0 in 0.00 W/m2 unknown
04:29 57.2 °F 55.4 °F 30.3 in Calm     94% 0 in 0.00 W/m2 unknown
04:34 57.2 °F 55.4 °F 30.3 in NE 0.6 mph 1.2 mph 94% 0 in 0.00 W/m2 unknown
04:39 57.2 °F 55.4 °F 30.3 in NE 1.2 mph 2.5 mph 94% 0 in 0.00 W/m2 unknown
04:44 55.4 °F 55.4 °F 30.3 in NE 1.2 mph 2.5 mph 94% 0 in 0.00 W/m2 unknown
04:49 55.4 °F 53.6 °F 30.3 in NE 1.9 mph 2.5 mph 94% 0 in 0.00 W/m2 unknown
04:54 55.4 °F 53.6 °F 30.3 in WSW 1.9 mph 2.5 mph 94% 0 in 0.00 W/m2 unknown
04:59 55.4 °F 53.6 °F 30.3 in WSW 1.2 mph 2.5 mph 95% 0 in 0.00 W/m2 unknown
05:04 55.4 °F 53.6 °F 30.3 in WSW 1.2 mph 2.5 mph 95% 0 in 0.00 W/m2 unknown
05:09 55.4 °F 53.6 °F 30.3 in WSW 1.2 mph 2.5 mph 95% 0 in 0.00 W/m2 unknown
05:14 55.4 °F 53.6 °F 30.3 in WSW 1.2 mph 2.5 mph 95% 0 in 0.00 W/m2 unknown
05:19 55.4 °F 53.6 °F 30.3 in Calm   1.9 mph 95% 0 in 0.00 W/m2 unknown
05:24 55.4 °F 53.6 °F 30.3 in Calm     95% 0 in 0.00 W/m2 unknown
05:29 55.4 °F 53.6 °F 30.3 in Calm     95% 0 in 0.00 W/m2 unknown
05:34 55.4 °F 55.4 °F 30.3 in Calm     95% 0 in 0.00 W/m2 unknown
05:39 55.4 °F 55.4 °F 30.3 in Calm     95% 0 in 0.00 W/m2 unknown
05:44 55.4 °F 55.4 °F 30.3 in Calm     95% 0 in 0.00 W/m2 unknown
05:49 55.4 °F 55.4 °F 30.3 in Calm     95% 0 in 0.00 W/m2 unknown
05:54 55.4 °F 55.4 °F 30.3 in Calm     95% 0 in 0.00 W/m2 unknown
05:59 55.4 °F 53.6 °F 30.3 in Calm     95% 0 in 0.00 W/m2 unknown
06:04 55.4 °F 55.4 °F 30.3 in Calm     95% 0 in 0.00 W/m2 unknown
06:09 55.4 °F 53.6 °F 30.3 in WSW 0.6 mph 1.2 mph 95% 0 in 0.00 W/m2 unknown
06:14 55.4 °F 53.6 °F 30.3 in West 0.6 mph 1.2 mph 95% 0 in 0.00 W/m2 unknown
06:19 55.4 °F 53.6 °F 30.3 in Calm   1.2 mph 95% 0 in 0.00 W/m2 unknown
06:24 55.4 °F 53.6 °F 30.3 in Calm     95% 0 in 0.00 W/m2 unknown
06:29 55.4 °F 53.6 °F 30.3 in Calm     95% 0 in 0.00 W/m2 unknown
06:34 55.4 °F 53.6 °F 30.3 in Calm     95% 0 in 0.00 W/m2 unknown
06:39 55.4 °F 53.6 °F 30.3 in Calm   1.2 mph 95% 0 in 0.00 W/m2 unknown
06:44 55.4 °F 53.6 °F 30.3 in West 0.6 mph 2.5 mph 95% 0 in 0.00 W/m2 unknown
06:49 55.4 °F 53.6 °F 30.3 in West 1.2 mph 1.9 mph 95% 0 in 0.00 W/m2 unknown
06:54 55.4 °F 53.6 °F 30.3 in Calm   1.2 mph 94% 0 in 0.00 W/m2 unknown
06:59 55.4 °F 53.6 °F 30.3 in West 0.6 mph 1.2 mph 94% 0 in 0.00 W/m2 unknown
07:04 55.4 °F 53.6 °F 30.3 in West 1.2 mph 1.2 mph 95% 0 in 0.00 W/m2 unknown
07:09 55.4 °F 53.6 °F 30.3 in Calm   1.2 mph 95% 0 in 0.00 W/m2 unknown
07:14 55.4 °F 53.6 °F 30.3 in Calm     95% 0 in 0.00 W/m2 unknown
07:19 55.4 °F 53.6 °F 30.3 in Calm     95% 0 in 0.00 W/m2 unknown
07:24 55.4 °F 53.6 °F 30.3 in Calm     95% 0 in 0.00 W/m2 unknown
07:29 55.4 °F 53.6 °F 30.3 in Calm     95% 0 in 0.00 W/m2 unknown
07:34 55.4 °F 53.6 °F 30.3 in Calm     95% 0 in 0.00 W/m2 unknown
07:39 55.4 °F 53.6 °F 30.3 in Calm     95% 0 in 0.00 W/m2 unknown
07:44 55.4 °F 53.6 °F 30.3 in Calm     95% 0 in 0.00 W/m2 unknown
07:49 55.4 °F 53.6 °F 30.3 in Calm     95% 0 in 0.00 W/m2 unknown
07:54 55.4 °F 53.6 °F 30.3 in Calm     95% 0 in 5.00 W/m2 unknown
07:59 55.4 °F 53.6 °F 30.3 in Calm     95% 0 in 9.00 W/m2 unknown
08:04 55.4 °F 53.6 °F 30.3 in Calm     95% 0 in 12.00 W/m2 unknown
08:09 55.4 °F 53.6 °F 30.3 in Calm     95% 0 in 16.00 W/m2 unknown
08:14 55.4 °F 53.6 °F 30.3 in Calm     95% 0.01 in 21.00 W/m2 unknown
08:19 55.4 °F 53.6 °F 30.3 in Calm     95% 0.01 in 26.00 W/m2 unknown
08:24 55.4 °F 53.6 °F 30.3 in East 0.6 mph 1.2 mph 95% 0.01 in 32.00 W/m2 unknown
08:29 55.4 °F 53.6 °F 30.3 in ESE 1.2 mph 2.5 mph 95% 0.01 in 40.00 W/m2 unknown
08:34 55.4 °F 53.6 °F 30.3 in Calm   1.9 mph 95% 0.01 in 47.00 W/m2 unknown
08:39 55.4 °F 55.4 °F 30.3 in ESE 0.6 mph 1.2 mph 95% 0.01 in 58.00 W/m2 unknown
08:44 55.4 °F 55.4 °F 30.3 in SSE 1.2 mph 2.5 mph 95% 0.01 in 63.00 W/m2 unknown
08:49 55.4 °F 55.4 °F 30.3 in SSE 1.2 mph 2.5 mph 95% 0.01 in 76.00 W/m2 unknown
08:54 57.2 °F 55.4 °F 30.3 in SSE 0.6 mph 1.9 mph 95% 0.01 in 83.00 W/m2 unknown
08:59 57.2 °F 55.4 °F 30.3 in SSW 1.9 mph 3.7 mph 95% 0.01 in 88.00 W/m2 unknown
09:04 57.2 °F 55.4 °F 30.3 in SSW 1.2 mph 3.1 mph 95% 0.01 in 104.00 W/m2 unknown
09:09 57.2 °F 57.2 °F 30.3 in Calm   1.9 mph 95% 0.01 in 114.00 W/m2 unknown
09:14 59 °F 57.2 °F 30.3 in Calm   1.2 mph 95% 0.01 in 123.00 W/m2 unknown
09:19 59 °F 57.2 °F 30.3 in SSW 0.6 mph 1.2 mph 95% 0.01 in 123.00 W/m2 unknown
09:24 59 °F 57.2 °F 30.3 in SSW 1.2 mph 1.9 mph 95% 0 in 111.00 W/m2 unknown
09:29 59 °F 57.2 °F 30.3 in SSW 1.2 mph 2.5 mph 95% 0 in 135.00 W/m2 unknown
09:34 59 °F 57.2 °F 30.4 in SSW 1.9 mph 3.7 mph 95% 0 in 165.00 W/m2 unknown
09:39 59 °F 57.2 °F 30.4 in SSW 1.2 mph 3.1 mph 94% 0 in 183.00 W/m2 unknown
09:44 59 °F 57.2 °F 30.4 in SW 1.9 mph 3.7 mph 94% 0 in 204.00 W/m2 unknown
09:49 60.8 °F 57.2 °F 30.4 in SW 2.5 mph 3.7 mph 94% 0 in 207.00 W/m2 unknown
09:54 60.8 °F 59 °F 30.4 in SSW 3.1 mph 3.7 mph 93% 0 in 183.00 W/m2 unknown
09:59 60.8 °F 59 °F 30.4 in SSW 1.9 mph 3.7 mph 93% 0 in 243.00 W/m2 unknown
10:04 60.8 °F 59 °F 30.4 in SSE 1.2 mph 3.7 mph 92% 0 in 253.00 W/m2 unknown
10:09 60.8 °F 59 °F 30.4 in South 1.2 mph 3.1 mph 92% 0 in 260.00 W/m2 unknown
10:14 62.6 °F 59 °F 30.4 in SSW 1.9 mph 3.7 mph 91% 0 in 269.00 W/m2 unknown
10:19 62.6 °F 59 °F 30.4 in SSW 1.9 mph 3.7 mph 91% 0 in 269.00 W/m2 unknown
10:24 62.6 °F 60.8 °F 30.4 in SSW 1.2 mph 2.5 mph 91% 0 in 274.00 W/m2 unknown
10:29 62.6 °F 60.8 °F 30.4 in SW 1.9 mph 3.7 mph 90% 0 in 294.00 W/m2 unknown
10:34 62.6 °F 60.8 °F 30.4 in SE 1.9 mph 3.7 mph 89% 0 in 297.00 W/m2 unknown
10:39 64.4 °F 60.8 °F 30.4 in SW 1.9 mph 3.1 mph 89% 0 in 299.00 W/m2 unknown
10:44 64.4 °F 60.8 °F 30.4 in SW 1.9 mph 3.7 mph 88% 0 in 306.00 W/m2 unknown
10:49 64.4 °F 60.8 °F 30.4 in SW 1.9 mph 3.7 mph 88% 0 in 316.00 W/m2 unknown
10:54 64.4 °F 60.8 °F 30.4 in WSW 1.9 mph 3.7 mph 87% 0 in 318.00 W/m2 unknown
10:59 66.2 °F 60.8 °F 30.4 in SSE 1.9 mph 3.7 mph 87% 0 in 330.00 W/m2 unknown
11:04 66.2 °F 60.8 °F 30.4 in SE 1.9 mph 3.7 mph 86% 0 in 336.00 W/m2 unknown
11:09 66.2 °F 60.8 °F 30.4 in SW 2.5 mph 3.7 mph 86% 0 in 336.00 W/m2 unknown
11:14 66.2 °F 62.6 °F 30.4 in WSW 1.9 mph 3.7 mph 87% 0 in 352.00 W/m2 unknown
11:19 66.2 °F 60.8 °F 30.4 in SSW 2.5 mph 3.7 mph 86% 0 in 362.00 W/m2 unknown
11:24 66.2 °F 62.6 °F 30.4 in SSW 1.9 mph 3.7 mph 86% 0 in 367.00 W/m2 unknown
11:29 66.2 °F 62.6 °F 30.4 in South 1.9 mph 3.7 mph 86% 0 in 373.00 W/m2 unknown
11:34 66.2 °F 62.6 °F 30.4 in SSW 2.5 mph 3.7 mph 86% 0 in 381.00 W/m2 unknown
11:39 66.2 °F 62.6 °F 30.4 in SSE 1.2 mph 3.7 mph 85% 0 in 387.00 W/m2 unknown
11:44 68 °F 62.6 °F 30.4 in NE 1.2 mph 2.5 mph 84% 0 in 399.00 W/m2 unknown
11:49 68 °F 62.6 °F 30.4 in SSE 1.9 mph 3.7 mph 83% 0 in 401.00 W/m2 unknown
11:54 68 °F 62.6 °F 30.4 in SW 3.1 mph 3.7 mph 82% 0 in 411.00 W/m2 unknown
11:59 68 °F 62.6 °F 30.4 in SW 2.5 mph 3.7 mph 82% 0 in 415.00 W/m2 unknown
12:04 68 °F 62.6 °F 30.4 in SW 2.5 mph 3.7 mph 82% 0 in 420.00 W/m2 unknown
12:09 68 °F 62.6 °F 30.4 in SW 3.1 mph 3.7 mph 81% 0 in 422.00 W/m2 unknown
12:14 69.8 °F 62.6 °F 30.4 in WSW 3.1 mph 5 mph 81% 0 in 431.00 W/m2 unknown
12:19 69.8 °F 62.6 °F 30.4 in SSW 5 mph 6.2 mph 80% 0 in 436.00 W/m2 unknown
12:24 68 °F 62.6 °F 30.4 in SSW 4.3 mph 6.2 mph 80% 0 in 434.00 W/m2 unknown
12:29 68 °F 62.6 °F 30.4 in SSW 3.1 mph 6.2 mph 81% 0 in 434.00 W/m2 unknown
12:34 69.8 °F 62.6 °F 30.4 in SSE 1.9 mph 3.7 mph 81% 0 in 448.00 W/m2 unknown
12:39 69.8 °F 62.6 °F 30.4 in WSW 3.1 mph 3.7 mph 80% 0 in 446.00 W/m2 unknown
12:44 69.8 °F 62.6 °F 30.4 in SW 4.3 mph 5 mph 79% 0 in 450.00 W/m2 unknown
12:49 69.8 °F 62.6 °F 30.4 in SW 3.1 mph 6.8 mph 79% 0 in 455.00 W/m2 unknown
12:54 69.8 °F 62.6 °F 30.4 in WSW 5 mph 6.8 mph 78% 0 in 457.00 W/m2 unknown
12:59 69.8 °F 62.6 °F 30.4 in SW 4.3 mph 6.8 mph 77% 0 in 457.00 W/m2 unknown
13:04 69.8 °F 62.6 °F 30.4 in SW 4.3 mph 6.2 mph 78% 0 in 455.00 W/m2 unknown
13:09 69.8 °F 62.6 °F 30.3 in West 4.3 mph 6.2 mph 77% 0 in 461.00 W/m2 unknown
13:14 69.8 °F 64.4 °F 30.3 in SW 3.1 mph 6.2 mph 78% 0 in 464.00 W/m2 unknown
13:19 71.6 °F 62.6 °F 30.3 in NW 2.5 mph 3.7 mph 76% 0 in 459.00 W/m2 unknown
13:24 71.6 °F 62.6 °F 30.3 in WSW 4.3 mph 6.2 mph 76% 0 in 459.00 W/m2 unknown
13:29 71.6 °F 64.4 °F 30.3 in SW 3.7 mph 6.2 mph 77% 0 in 461.00 W/m2 unknown
13:34 71.6 °F 64.4 °F 30.3 in SW 3.1 mph 5 mph 76% 0 in 455.00 W/m2 unknown
13:39 71.6 °F 62.6 °F 30.3 in SSW 2.5 mph 5 mph 76% 0 in 454.00 W/m2 unknown
13:44 71.6 °F 64.4 °F 30.3 in SSW 5 mph 6.2 mph 76% 0 in 454.00 W/m2 unknown
13:49 71.6 °F 64.4 °F 30.3 in WNW 3.7 mph 6.2 mph 74% 0 in 452.00 W/m2 unknown
13:54 73.4 °F 64.4 °F 30.3 in WNW 3.1 mph 6.2 mph 74% 0 in 445.00 W/m2 unknown
13:59 73.4 °F 64.4 °F 30.3 in WSW 5 mph 6.8 mph 73% 0 in 438.00 W/m2 unknown
14:04 73.4 °F 62.6 °F 30.3 in WSW 3.7 mph 6.8 mph 73% 0 in 439.00 W/m2 unknown
14:09 73.4 °F 64.4 °F 30.3 in South 1.2 mph 5 mph 74% 0 in 445.00 W/m2 unknown
14:14 73.4 °F 64.4 °F 30.3 in WNW 4.3 mph 5 mph 74% 0 in 434.00 W/m2 unknown
14:19 73.4 °F 62.6 °F 30.3 in West 3.7 mph 5 mph 71% 0 in 434.00 W/m2 unknown
14:24 73.4 °F 64.4 °F 30.3 in West 1.9 mph 5 mph 72% 0 in 429.00 W/m2 unknown
14:29 73.4 °F 64.4 °F 30.3 in West 2.5 mph 3.7 mph 72% 0 in 422.00 W/m2 unknown
14:34 73.4 °F 62.6 °F 30.3 in SW 4.3 mph 6.2 mph 71% 0 in 424.00 W/m2 unknown
14:39 73.4 °F 62.6 °F 30.3 in SSW 3.1 mph 3.7 mph 71% 0 in 415.00 W/m2 unknown
14:44 73.4 °F 62.6 °F 30.3 in WSW 5 mph 6.8 mph 71% 0 in 415.00 W/m2 unknown
14:49 73.4 °F 62.6 °F 30.3 in West 3.1 mph 6.8 mph 69% 0 in 413.00 W/m2 unknown
14:54 73.4 °F 62.6 °F 30.3 in West 3.7 mph 5 mph 69% 0 in 404.00 W/m2 unknown
14:59 73.4 °F 62.6 °F 30.3 in WSW 5.6 mph 6.2 mph 69% 0 in 396.00 W/m2 unknown
15:04 73.4 °F 62.6 °F 30.3 in WSW 5 mph 6.2 mph 67% 0 in 390.00 W/m2 unknown
15:09 73.4 °F 62.6 °F 30.3 in SSW 1.9 mph 6.2 mph 66% 0 in 381.00 W/m2 unknown
15:14 75.2 °F 62.6 °F 30.3 in SW 3.1 mph 5 mph 66% 0 in 381.00 W/m2 unknown
15:19 75.2 °F 62.6 °F 30.3 in West 4.3 mph 6.2 mph 65% 0 in 373.00 W/m2 unknown
15:24 75.2 °F 60.8 °F 30.3 in WSW 3.1 mph 6.2 mph 63% 0 in 369.00 W/m2 unknown
15:29 75.2 °F 62.6 °F 30.3 in WSW 3.7 mph 5 mph 64% 0 in 350.00 W/m2 unknown
15:34 75.2 °F 62.6 °F 30.3 in West 3.7 mph 5 mph 64% 0 in 346.00 W/m2 unknown
15:39 75.2 °F 60.8 °F 30.3 in West 3.7 mph 5 mph 62% 0 in 329.00 W/m2 unknown
15:44 75.2 °F 60.8 °F 30.3 in WSW 4.3 mph 6.2 mph 62% 0 in 327.00 W/m2 unknown
15:49 75.2 °F 62.6 °F 30.3 in WSW 5.6 mph 8.1 mph 63% 0 in 315.00 W/m2 unknown
15:54 75.2 °F 62.6 °F 30.3 in West 7.5 mph 9.3 mph 63% 0 in 299.00 W/m2 unknown
15:59 75.2 °F 60.8 °F 30.3 in West 5 mph 8.7 mph 62% 0 in 285.00 W/m2 unknown
16:04 75.2 °F 62.6 °F 30.3 in NW 3.1 mph 6.2 mph 63% 0 in 278.00 W/m2 unknown
16:09 75.2 °F 62.6 °F 30.3 in SW 4.3 mph 6.2 mph 63% 0 in 258.00 W/m2 unknown
16:14 75.2 °F 62.6 °F 30.3 in West 4.3 mph 6.2 mph 63% 0 in 258.00 W/m2 unknown
16:19 75.2 °F 60.8 °F 30.3 in WNW 6.2 mph 8.1 mph 62% 0 in 250.00 W/m2 unknown
16:24 75.2 °F 62.6 °F 30.3 in WNW 6.2 mph 8.1 mph 62% 0 in 229.00 W/m2 unknown
16:29 75.2 °F 62.6 °F 30.3 in West 4.3 mph 6.8 mph 62% 0 in 220.00 W/m2 unknown
16:34 75.2 °F 60.8 °F 30.3 in West 3.1 mph 6.2 mph 63% 0 in 209.00 W/m2 unknown
16:39 75.2 °F 62.6 °F 30.3 in West 4.3 mph 5 mph 64% 0 in 190.00 W/m2 unknown
16:44 75.2 °F 60.8 °F 30.3 in West 5 mph 6.8 mph 64% 0 in 165.00 W/m2 unknown
16:49 75.2 °F 62.6 °F 30.3 in WSW 3.7 mph 6.8 mph 65% 0 in 155.00 W/m2 unknown
16:54 75.2 °F 62.6 °F 30.3 in WSW 3.1 mph 6.2 mph 65% 0 in 118.00 W/m2 unknown
16:59 75.2 °F 62.6 °F 30.3 in West 2.5 mph 3.7 mph 65% 0 in 114.00 W/m2 unknown
17:04 75.2 °F 60.8 °F 30.3 in West 1.9 mph 3.7 mph 63% 0 in 97.00 W/m2 unknown
17:09 73.4 °F 60.8 °F 30.3 in West 2.5 mph 3.7 mph 64% 0 in 88.00 W/m2 unknown
17:14 73.4 °F 60.8 °F 30.3 in West 2.5 mph 3.7 mph 65% 0 in 98.00 W/m2 unknown
17:19 73.4 °F 60.8 °F 30.3 in West 1.9 mph 3.7 mph 65% 0 in 90.00 W/m2 unknown
17:24 73.4 °F 60.8 °F 30.3 in West 3.7 mph 3.7 mph 66% 0 in 76.00 W/m2 unknown
17:29 73.4 °F 62.6 °F 30.3 in West 3.1 mph 3.7 mph 67% 0 in 63.00 W/m2 unknown
17:34 73.4 °F 62.6 °F 30.3 in West 1.9 mph 3.7 mph 68% 0 in 53.00 W/m2 unknown
17:39 73.4 °F 62.6 °F 30.3 in West 2.5 mph 3.7 mph 68% 0 in 44.00 W/m2 unknown
17:44 73.4 °F 60.8 °F 30.3 in WSW 1.9 mph 3.7 mph 68% 0 in 35.00 W/m2 unknown
17:49 73.4 °F 60.8 °F 30.3 in West 1.9 mph 2.5 mph 68% 0 in 26.00 W/m2 unknown
17:54 71.6 °F 60.8 °F 30.3 in West 1.9 mph 2.5 mph 69% 0 in 19.00 W/m2 unknown
17:59 71.6 °F 60.8 °F 30.3 in WSW 1.9 mph 2.5 mph 71% 0 in 16.00 W/m2 unknown
18:04 71.6 °F 60.8 °F 30.3 in WSW 1.9 mph 2.5 mph 72% 0 in 11.00 W/m2 unknown
18:09 69.8 °F 60.8 °F 30.3 in WSW 1.2 mph 1.9 mph 73% 0 in 7.00 W/m2 unknown
18:14 69.8 °F 60.8 °F 30.3 in Calm   1.2 mph 75% 0 in 5.00 W/m2 unknown
18:19 69.8 °F 60.8 °F 30.3 in Calm     76% 0 in 0.00 W/m2 unknown
18:24 68 °F 60.8 °F 30.3 in Calm     76% 0 in 0.00 W/m2 unknown
18:29 68 °F 60.8 °F 30.3 in Calm     78% 0 in 0.00 W/m2 unknown
18:34 68 °F 60.8 °F 30.3 in Calm     78% 0 in 0.00 W/m2 unknown
18:39 68 °F 60.8 °F 30.3 in Calm     79% 0 in 0.00 W/m2 unknown
18:44 66.2 °F 60.8 °F 30.3 in Calm     79% 0 in 0.00 W/m2 unknown
18:49 66.2 °F 60.8 °F 30.3 in Calm     80% 0 in 0.00 W/m2 unknown
18:54 66.2 °F 60.8 °F 30.3 in Calm     80% 0 in 0.00 W/m2 unknown
18:59 66.2 °F 59 °F 30.3 in Calm     80% 0 in 0.00 W/m2 unknown
19:04 66.2 °F 59 °F 30.3 in Calm     81% 0 in 0.00 W/m2 unknown
19:09 66.2 °F 59 °F 30.3 in Calm     81% 0 in 0.00 W/m2 unknown
19:14 66.2 °F 59 °F 30.3 in Calm     81% 0 in 0.00 W/m2 unknown
19:19 64.4 °F 59 °F 30.3 in Calm     81% 0 in 0.00 W/m2 unknown
19:24 64.4 °F 59 °F 30.3 in Calm     82% 0 in 0.00 W/m2 unknown
19:29 64.4 °F 59 °F 30.3 in Calm     83% 0 in 0.00 W/m2 unknown
19:34 64.4 °F 59 °F 30.3 in Calm     83% 0 in 0.00 W/m2 unknown
19:39 64.4 °F 59 °F 30.3 in Calm     84% 0 in 0.00 W/m2 unknown
19:44 62.6 °F 59 °F 30.3 in Calm     85% 0 in 0.00 W/m2 unknown
19:49 62.6 °F 59 °F 30.3 in Calm     85% 0 in 0.00 W/m2 unknown
19:54 62.6 °F 59 °F 30.3 in Calm     85% 0 in 0.00 W/m2 unknown
19:59 62.6 °F 59 °F 30.3 in Calm     85% 0 in 0.00 W/m2 unknown
20:04 62.6 °F 59 °F 30.3 in Calm     86% 0 in 0.00 W/m2 unknown
20:09 62.6 °F 59 °F 30.3 in Calm     86% 0 in 0.00 W/m2 unknown
20:14 62.6 °F 59 °F 30.3 in Calm     86% 0 in 0.00 W/m2 unknown
20:19 62.6 °F 59 °F 30.3 in Calm     87% 0 in 0.00 W/m2 unknown
20:24 62.6 °F 59 °F 30.3 in Calm     87% 0 in 0.00 W/m2 unknown
20:29 62.6 °F 57.2 °F 30.3 in Calm     87% 0 in 0.00 W/m2 unknown
20:34 62.6 °F 57.2 °F 30.3 in Calm     87% 0 in 0.00 W/m2 unknown
20:39 60.8 °F 57.2 °F 30.3 in Calm     87% 0 in 0.00 W/m2 unknown
20:44 60.8 °F 57.2 °F 30.3 in Calm     87% 0 in 0.00 W/m2 unknown
20:49 60.8 °F 57.2 °F 30.3 in Calm     87% 0 in 0.00 W/m2 unknown
20:54 60.8 °F 57.2 °F 30.3 in Calm     87% 0 in 0.00 W/m2 unknown
20:59 60.8 °F 57.2 °F 30.3 in Calm     87% 0 in 0.00 W/m2 unknown
21:04 60.8 °F 57.2 °F 30.3 in Calm     87% 0 in 0.00 W/m2 unknown
21:09 60.8 °F 57.2 °F 30.3 in Calm     87% 0 in 0.00 W/m2 unknown
21:14 60.8 °F 57.2 °F 30.3 in Calm     87% 0 in 0.00 W/m2 unknown
21:19 60.8 °F 57.2 °F 30.3 in Calm     87% 0 in 0.00 W/m2 unknown
21:24 60.8 °F 57.2 °F 30.3 in Calm     88% 0 in 0.00 W/m2 unknown
21:29 60.8 °F 57.2 °F 30.3 in Calm     88% 0 in 0.00 W/m2 unknown
21:34 60.8 °F 57.2 °F 30.3 in Calm     88% 0 in 0.00 W/m2 unknown
21:39 60.8 °F 57.2 °F 30.3 in Calm     88% 0 in 0.00 W/m2 unknown
21:44 59 °F 57.2 °F 30.3 in Calm     89% 0 in 0.00 W/m2 unknown
21:49 59 °F 55.4 °F 30.3 in Calm     89% 0 in 0.00 W/m2 unknown
21:54 59 °F 55.4 °F 30.3 in Calm     89% 0 in 0.00 W/m2 unknown
21:59 59 °F 55.4 °F 30.3 in Calm     90% 0 in 0.00 W/m2 unknown
22:04 59 °F 55.4 °F 30.3 in Calm     90% 0 in 0.00 W/m2 unknown
22:09 59 °F 55.4 °F 30.3 in Calm     91% 0 in 0.00 W/m2 unknown
22:14 59 °F 55.4 °F 30.3 in Calm     91% 0 in 0.00 W/m2 unknown
22:19 59 °F 55.4 °F 30.3 in Calm     91% 0 in 0.00 W/m2 unknown
22:24 59 °F 55.4 °F 30.3 in Calm     91% 0 in 0.00 W/m2 unknown
22:29 59 °F 55.4 °F 30.4 in Calm     91% 0 in 0.00 W/m2 unknown
22:34 59 °F 55.4 °F 30.4 in Calm     91% 0 in 0.00 W/m2 unknown
22:39 57.2 °F 55.4 °F 30.4 in Calm     91% 0 in 0.00 W/m2 unknown
22:44 57.2 °F 55.4 °F 30.4 in WSW 2.5 mph 3.7 mph 90% 0 in 0.00 W/m2 unknown
22:49 57.2 °F 55.4 °F 30.4 in WSW 1.9 mph 3.1 mph 91% 0 in 0.00 W/m2 unknown
22:54 57.2 °F 55.4 °F 30.4 in WSW 1.2 mph 2.5 mph 91% 0 in 0.00 W/m2 unknown
22:59 57.2 °F 55.4 °F 30.4 in Calm   1.9 mph 91% 0 in 0.00 W/m2 unknown
23:04 57.2 °F 55.4 °F 30.4 in Calm     91% 0 in 0.00 W/m2 unknown
23:09 57.2 °F 53.6 °F 30.4 in Calm   1.2 mph 91% 0 in 0.00 W/m2 unknown
23:14 57.2 °F 53.6 °F 30.4 in Calm   1.2 mph 91% 0 in 0.00 W/m2 unknown
23:19 57.2 °F 53.6 °F 30.4 in WSW 1.2 mph 2.5 mph 90% 0 in 0.00 W/m2 unknown
23:24 57.2 °F 53.6 °F 30.4 in WSW 1.2 mph 2.5 mph 90% 0 in 0.00 W/m2 unknown
23:29 57.2 °F 53.6 °F 30.4 in Calm   1.9 mph 90% 0 in 0.00 W/m2 unknown
23:34 57.2 °F 53.6 °F 30.4 in WSW 1.2 mph 2.5 mph 90% 0 in 0.00 W/m2 unknown
23:39 57.2 °F 53.6 °F 30.4 in WSW 1.2 mph 2.5 mph 91% 0 in 0.00 W/m2 unknown
23:44 57.2 °F 53.6 °F 30.4 in SW 1.9 mph 2.5 mph 91% 0 in 0.00 W/m2 unknown
23:49 57.2 °F 53.6 °F 30.4 in SW 1.9 mph 2.5 mph 90% 0 in 0.00 W/m2 unknown
23:54 57.2 °F 53.6 °F 30.4 in SW 1.2 mph 2.5 mph 90% 0 in 0.00 W/m2 unknown
23:59 57.2 °F 53.6 °F 30.4 in SW 1.2 mph 2.5 mph 90% 0 in 0.00 W/m2 unknown
Stazione Meteorologica MeteoMincio Rivalta s/M (MN)
Con i complimenti di Weather Underground - 4 mb



METEO PILLOLE
Il tornado più violento degli Stati Uniti
Missouri - Illinois e Indiana
Il 18 marzo 1925 un tornado percorre oltre 350 chilometri attraverso tre Stati, uccidendo 689 persone e ferendone quasi 200.
Share

Non seguire questo link o sarai bannato dal sito!